CYXE

Saskatoon John G. Diefenbaker International Airport

Saskatoon, Saskatchewan, Canada
METAR CYXE 250000Z 23018KT 15SM FEW160 BKN280 20/M04 A3008 RMK AC1CI5 SLP203 DENSITY ALT 2500FT
Observed Flight Rules
Apr-25 @ 00:00 UTC (24 minutes ago) Visual Flight Rules
Wind Visibility Clouds
230° at 18 knots 15 miles
  • Few at 16,000' AGL
  • Broken at 28,000' AGL
Temperatures Readings
Current 20°C / 68°F
Dewpoint -4°C / 25°F
Humidity 20%
Altimeter 30.08" Hg
Pressure 1020.3 hPa
Elevation 504
METAR CYXE 250000Z 23018KT 15SM FEW160 BKN280 20/M04 A3008 RMK AC1CI5 SLP203 DENSITY ALT 2500FT
Observed Flight Rules
Apr-25 @ 00:00 UTC
(24 minutes ago)
VFR
Wind Visibility
230° at 18 knots 15 miles
Clouds
  • Few at 16,000' AGL
  • Broken at 28,000' AGL
Temperature Dewpoint
20°C / 68°F -4°C / 25°F
Humidity Altimeter Pressure
20% 30.08" Hg 1020.3 hPa